Elk, Pennsylvania
Current Conditions -  °F | °C
As of 4:35 PM on Friday 19 Dec 2014 (Local Time) from KN38 Reporting Station
Overcast Overcast  
Wind Chill: 19°   Ceiling: 3200
Heat Index: 25°   Visibility: 10mi
Dew Point: 19°   Wind: 5mph
Humidity: 80%   Direction: NA
Pressure: 30.11"   Gusts: 13mph
Location:  41.6649°N, 77.5403°W
Report Text: KN38 192135Z AUTO VRB04G11KT 10SM FEW018 OVC032 M04/M07 A3011 RMK AO2
Loading
Personal Weather Stations






























Interactive Weather Map New forecast layout! Learn more

10-Day Weather Forecast

Advertisements
Track Severe Weather on mobile